createdAt,value
2023-05-14T00:01:28.608Z,99.90
2023-05-14T00:03:57.199Z,99.90
2023-05-14T00:06:25.849Z,99.90
2023-05-14T00:08:54.269Z,99.90
2023-05-14T00:11:22.758Z,99.90
2023-05-14T00:13:52.512Z,99.90
2023-05-14T00:16:21.021Z,99.90
2023-05-14T00:18:49.715Z,99.90
2023-05-14T00:21:18.183Z,99.90
2023-05-14T00:23:46.621Z,99.90
2023-05-14T00:26:15.025Z,99.90
2023-05-14T00:28:45.915Z,99.90
2023-05-14T00:31:15.647Z,99.90
2023-05-14T00:33:43.988Z,99.90
2023-05-14T00:36:12.447Z,99.90
2023-05-14T00:38:40.796Z,99.90
2023-05-14T00:41:09.605Z,99.90
2023-05-14T00:43:38.009Z,99.90
2023-05-14T00:46:07.205Z,99.90
2023-05-14T00:48:38.823Z,99.90
2023-05-14T00:51:07.776Z,99.90
2023-05-14T00:53:37.184Z,99.90
2023-05-14T00:56:07.029Z,99.90
2023-05-14T00:58:35.538Z,99.90
2023-05-14T01:01:04.296Z,99.90
2023-05-14T01:03:33.688Z,99.90
2023-05-14T01:06:15.376Z,99.90
2023-05-14T01:08:52.152Z,99.90
2023-05-14T01:11:27.518Z,99.90
2023-05-14T01:14:06.983Z,99.90
2023-05-14T01:16:37.435Z,99.90
2023-05-14T01:19:08.099Z,99.90
2023-05-14T01:21:41.164Z,99.90
2023-05-14T01:24:09.995Z,99.90
2023-05-14T01:26:38.688Z,99.90
2023-05-14T01:29:17.082Z,99.90
2023-05-14T01:31:48.164Z,99.90
2023-05-14T01:34:17.938Z,99.90
2023-05-14T01:36:49.544Z,99.90
2023-05-14T01:39:19.012Z,99.90
2023-05-14T01:41:48.408Z,99.90
2023-05-14T01:44:17.173Z,99.90
2023-05-14T01:46:45.562Z,99.90
2023-05-14T01:49:14.506Z,99.90
2023-05-14T01:51:42.963Z,99.90
2023-05-14T01:54:12.909Z,99.90
2023-05-14T01:56:41.633Z,99.90
2023-05-14T01:59:10.192Z,99.90
2023-05-14T02:01:38.831Z,99.90
2023-05-14T02:04:07.397Z,99.90
2023-05-14T02:06:35.893Z,99.90
2023-05-14T02:09:05.493Z,99.90
2023-05-14T02:11:35.381Z,99.90
2023-05-14T02:14:04.130Z,99.90
2023-05-14T02:16:32.690Z,99.90
2023-05-14T02:19:01.242Z,99.90
2023-05-14T02:21:29.826Z,99.90
2023-05-14T02:23:58.283Z,99.90
2023-05-14T02:26:26.896Z,99.90
2023-05-14T02:28:57.963Z,99.90
2023-05-14T02:31:27.901Z,99.90
2023-05-14T02:33:56.343Z,99.90
2023-05-14T02:36:24.727Z,99.90
2023-05-14T02:38:53.216Z,99.90
2023-05-14T02:41:23.544Z,99.90
2023-05-14T02:43:53.919Z,99.90
2023-05-14T02:46:24.719Z,99.90
2023-05-14T02:48:53.247Z,99.90
2023-05-14T02:51:22.188Z,99.90
2023-05-14T02:53:51.022Z,99.90
2023-05-14T02:56:19.509Z,99.90
2023-05-14T02:58:48.074Z,99.90
2023-05-14T03:01:18.823Z,99.90
2023-05-14T03:03:49.850Z,99.90
2023-05-14T03:06:18.913Z,99.90
2023-05-14T03:08:47.346Z,99.90
2023-05-14T03:11:15.832Z,99.90
2023-05-14T03:13:44.165Z,99.90
2023-05-14T03:16:12.627Z,99.90
2023-05-14T03:18:41.188Z,99.90
2023-05-14T03:21:12.179Z,99.90
2023-05-14T03:23:40.624Z,99.90
2023-05-14T03:26:09.160Z,99.90
2023-05-14T03:28:37.630Z,99.90
2023-05-14T03:31:06.388Z,99.90
2023-05-14T03:33:34.875Z,99.90
2023-05-14T03:36:03.180Z,99.90
2023-05-14T03:38:32.971Z,99.90
2023-05-14T03:41:01.534Z,99.90
2023-05-14T03:43:29.864Z,99.90
2023-05-14T03:45:58.403Z,99.90
2023-05-14T03:48:26.965Z,99.90
2023-05-14T03:50:55.823Z,99.90
2023-05-14T03:53:24.370Z,99.90
2023-05-14T03:55:55.154Z,99.90
2023-05-14T03:58:24.146Z,99.90
2023-05-14T04:00:52.705Z,99.90
2023-05-14T04:03:21.828Z,99.90
2023-05-14T04:05:52.518Z,99.90
2023-05-14T04:08:21.416Z,99.90
2023-05-14T04:10:51.602Z,99.90
2023-05-14T04:13:21.482Z,99.90
2023-05-14T04:15:49.942Z,99.90
2023-05-14T04:18:18.445Z,99.90
2023-05-14T04:20:47.480Z,99.90
2023-05-14T04:23:16.132Z,99.90
2023-05-14T04:25:45.042Z,99.90
2023-05-14T04:28:13.474Z,99.90
2023-05-14T04:30:43.325Z,99.90
2023-05-14T04:33:11.857Z,99.90
2023-05-14T04:35:40.220Z,99.90
2023-05-14T04:38:09.345Z,99.90
2023-05-14T04:40:37.885Z,99.90
2023-05-14T04:43:06.409Z,99.90
2023-05-14T04:45:34.927Z,99.90
2023-05-14T04:48:05.064Z,99.90
2023-05-14T04:50:33.507Z,99.90
2023-05-14T04:53:03.312Z,99.90
2023-05-14T04:55:31.818Z,99.90
2023-05-14T04:58:00.575Z,99.90
2023-05-14T05:00:29.172Z,99.90
2023-05-14T05:02:57.797Z,99.90
2023-05-14T05:05:27.568Z,99.90
2023-05-14T05:07:56.351Z,99.90
2023-05-14T05:10:25.339Z,99.90
2023-05-14T05:12:54.364Z,99.90
2023-05-14T05:15:23.692Z,99.90
2023-05-14T05:17:53.743Z,99.90
2023-05-14T05:20:22.547Z,99.90
2023-05-14T05:22:52.575Z,99.90
2023-05-14T05:25:21.183Z,99.90
2023-05-14T05:27:49.489Z,99.90
2023-05-14T05:30:18.243Z,99.90
2023-05-14T05:32:46.792Z,99.90
2023-05-14T05:35:15.347Z,99.90
2023-05-14T05:37:45.366Z,99.90
2023-05-14T05:40:16.040Z,99.90
2023-05-14T05:42:44.964Z,99.90
2023-05-14T05:45:13.315Z,99.90
2023-05-14T05:47:41.808Z,99.90
2023-05-14T05:50:12.561Z,99.90
2023-05-14T05:52:41.894Z,99.90
2023-05-14T05:55:11.020Z,99.90
2023-05-14T05:57:40.736Z,99.90
2023-05-14T06:00:14.246Z,99.90
2023-05-14T06:02:43.254Z,99.90
2023-05-14T06:05:12.351Z,99.90
2023-05-14T06:07:41.009Z,99.90
2023-05-14T06:10:10.341Z,99.90
2023-05-14T06:12:40.640Z,99.90
2023-05-14T06:15:10.551Z,99.90
2023-05-14T06:17:39.711Z,99.90
2023-05-14T06:20:10.085Z,99.90
2023-05-14T06:22:38.886Z,99.90
2023-05-14T06:25:08.354Z,99.90
2023-05-14T06:27:38.122Z,99.90
2023-05-14T06:30:10.643Z,99.90
2023-05-14T06:32:39.281Z,99.90
2023-05-14T06:35:09.273Z,99.90
2023-05-14T06:37:37.669Z,99.90
2023-05-14T06:40:07.638Z,99.90
2023-05-14T06:42:36.209Z,99.90
2023-05-14T06:45:08.937Z,99.90
2023-05-14T06:47:38.754Z,99.90
2023-05-14T06:50:10.127Z,99.90
2023-05-14T06:52:40.606Z,99.90
2023-05-14T06:55:09.790Z,99.90
2023-05-14T06:57:40.478Z,99.90
2023-05-14T07:00:15.792Z,99.90
2023-05-14T07:02:44.462Z,99.90
2023-05-14T07:05:13.022Z,99.90
2023-05-14T07:07:41.876Z,99.90
2023-05-14T07:10:10.492Z,99.90
2023-05-14T07:12:39.102Z,99.90
2023-05-14T07:15:10.806Z,99.90
2023-05-14T07:17:39.576Z,99.90
2023-05-14T07:20:09.873Z,99.90
2023-05-14T07:22:39.805Z,99.90
2023-05-14T07:25:08.902Z,99.90
2023-05-14T07:27:37.337Z,99.90
2023-05-14T07:30:07.361Z,99.90
2023-05-14T07:32:37.356Z,99.90
2023-05-14T07:35:06.938Z,99.90
2023-05-14T07:37:35.848Z,99.90
2023-05-14T07:40:04.439Z,99.90
2023-05-14T07:42:43.996Z,99.90
2023-05-14T07:45:13.024Z,99.90
2023-05-14T07:47:43.137Z,99.90
2023-05-14T07:50:13.463Z,99.90
2023-05-14T07:52:41.892Z,99.90
2023-05-14T07:55:11.744Z,99.90
2023-05-14T07:57:41.030Z,99.90
2023-05-14T08:00:11.631Z,99.90
2023-05-14T08:02:46.299Z,99.90
2023-05-14T08:05:15.551Z,99.90
2023-05-14T08:07:44.182Z,99.90
2023-05-14T08:10:12.873Z,99.90
2023-05-14T08:12:42.861Z,99.90
2023-05-14T08:15:12.150Z,99.90
2023-05-14T08:17:40.730Z,99.90
2023-05-14T08:20:12.211Z,99.90
2023-05-14T08:22:41.144Z,99.90
2023-05-14T08:25:10.558Z,99.90
2023-05-14T08:27:38.950Z,99.90
2023-05-14T08:30:08.765Z,99.90
2023-05-14T08:32:38.733Z,99.90
2023-05-14T08:35:12.226Z,99.90
2023-05-14T08:37:41.612Z,99.90
2023-05-14T08:40:11.341Z,99.90
2023-05-14T08:42:41.773Z,99.90
2023-05-14T08:45:18.007Z,99.90
2023-05-14T08:47:50.592Z,99.90
2023-05-14T08:50:23.032Z,99.90
2023-05-14T08:52:53.191Z,99.90
2023-05-14T08:55:22.504Z,99.90
2023-05-14T08:57:51.105Z,99.90
2023-05-14T09:00:21.728Z,99.90
2023-05-14T09:02:51.051Z,99.90
2023-05-14T09:05:23.640Z,99.90
2023-05-14T09:07:52.217Z,99.90
2023-05-14T09:10:21.315Z,99.90
2023-05-14T09:12:50.110Z,99.90
2023-05-14T09:15:19.007Z,99.90
2023-05-14T09:17:50.613Z,99.90
2023-05-14T09:20:20.003Z,99.90
2023-05-14T09:22:54.372Z,99.90
2023-05-14T09:25:28.254Z,99.90
2023-05-14T09:27:58.779Z,99.90
2023-05-14T09:30:27.821Z,99.90
2023-05-14T09:32:56.707Z,99.90
2023-05-14T09:35:26.413Z,99.90
2023-05-14T09:37:56.905Z,99.90
2023-05-14T09:40:26.604Z,99.90
2023-05-14T09:42:56.314Z,99.90
2023-05-14T09:45:26.258Z,99.90
2023-05-14T09:47:54.759Z,99.90
2023-05-14T09:50:23.771Z,99.90
2023-05-14T09:52:52.576Z,99.90
2023-05-14T09:55:23.221Z,99.90
2023-05-14T09:57:51.633Z,99.90
2023-05-14T10:00:20.833Z,99.90
2023-05-14T10:02:53.546Z,99.90
2023-05-14T10:05:23.631Z,99.90
2023-05-14T10:07:54.434Z,99.90
2023-05-14T10:10:28.186Z,99.90
2023-05-14T10:13:00.864Z,99.90
2023-05-14T10:15:35.084Z,99.90
2023-05-14T10:18:11.342Z,99.90
2023-05-14T10:20:41.387Z,99.90
2023-05-14T10:23:10.276Z,99.90
2023-05-14T10:25:41.269Z,99.90
2023-05-14T10:28:11.819Z,99.90
2023-05-14T10:30:46.120Z,99.90
2023-05-14T10:33:16.954Z,99.90
2023-05-14T10:36:00.965Z,99.90
2023-05-14T10:38:30.464Z,99.90
2023-05-14T10:41:03.657Z,99.90
2023-05-14T10:43:37.007Z,99.90
2023-05-14T10:46:06.086Z,99.90
2023-05-14T10:48:35.155Z,99.90
2023-05-14T10:51:04.404Z,99.90
2023-05-14T10:53:35.375Z,99.90
2023-05-14T10:56:10.731Z,99.90
2023-05-14T10:58:40.389Z,99.90
2023-05-14T11:01:09.860Z,99.90
2023-05-14T11:03:43.349Z,99.90
2023-05-14T11:06:13.522Z,99.90
2023-05-14T11:08:42.952Z,99.90
2023-05-14T11:11:13.049Z,99.50
2023-05-14T11:13:42.746Z,99.00
2023-05-14T11:16:22.956Z,98.70
2023-05-14T11:19:01.961Z,97.10
2023-05-14T11:21:31.980Z,96.00
2023-05-14T11:24:01.496Z,93.50
2023-05-14T11:26:33.056Z,87.50
2023-05-14T11:29:01.686Z,78.10
2023-05-14T11:31:30.188Z,72.50
2023-05-14T11:33:58.743Z,67.10
2023-05-14T11:36:27.259Z,62.00
2023-05-14T11:38:55.770Z,58.20
2023-05-14T11:41:24.665Z,57.30
2023-05-14T11:43:54.640Z,58.10
2023-05-14T11:46:23.861Z,62.10
2023-05-14T11:48:52.291Z,62.80
2023-05-14T11:51:20.786Z,65.00
2023-05-14T11:53:49.292Z,61.50
2023-05-14T11:56:17.899Z,59.60
2023-05-14T11:58:49.864Z,58.00
2023-05-14T12:01:19.946Z,56.70
2023-05-14T12:03:48.581Z,56.70
2023-05-14T12:06:17.098Z,53.60
2023-05-14T12:08:46.520Z,52.70
2023-05-14T12:11:17.004Z,52.70
2023-05-14T12:13:52.240Z,52.70
2023-05-14T12:16:22.446Z,50.90
2023-05-14T12:18:50.858Z,47.00
2023-05-14T12:21:19.653Z,45.10
2023-05-14T12:23:48.193Z,45.90
2023-05-14T12:26:16.794Z,46.80
2023-05-14T12:28:49.119Z,48.20
2023-05-14T12:31:17.653Z,52.40
2023-05-14T12:33:47.486Z,53.70
2023-05-14T12:36:21.966Z,50.70
2023-05-14T12:38:51.941Z,49.40
2023-05-14T12:41:21.347Z,50.40
2023-05-14T12:43:50.616Z,48.50
2023-05-14T12:46:19.321Z,44.90
2023-05-14T12:48:50.528Z,41.60
2023-05-14T12:51:20.557Z,39.50
2023-05-14T12:53:49.384Z,40.40
2023-05-14T12:56:17.973Z,38.90
2023-05-14T12:58:47.403Z,37.00
2023-05-14T13:01:15.954Z,36.70
2023-05-14T13:03:44.489Z,36.40
2023-05-14T13:06:14.303Z,35.70
2023-05-14T13:08:42.912Z,34.20
2023-05-14T13:11:11.336Z,35.10
2023-05-14T13:13:39.873Z,35.00
2023-05-14T13:16:08.891Z,34.40
2023-05-14T13:18:37.440Z,33.30
2023-05-14T13:21:06.510Z,33.30
2023-05-14T13:23:36.278Z,34.10
2023-05-14T13:26:04.975Z,32.80
2023-05-14T13:28:33.495Z,30.20
2023-05-14T13:31:07.895Z,30.00
2023-05-14T13:33:37.933Z,28.60
2023-05-14T13:36:06.973Z,28.50
2023-05-14T13:38:37.001Z,28.80
2023-05-14T13:41:05.878Z,28.00
2023-05-14T13:43:35.384Z,28.40
2023-05-14T13:46:05.046Z,27.40
2023-05-14T13:48:34.133Z,26.80
2023-05-14T13:51:02.509Z,26.70
2023-05-14T13:53:31.027Z,25.30
2023-05-14T13:56:01.790Z,25.20
2023-05-14T13:58:30.484Z,24.90
2023-05-14T14:00:59.018Z,23.20
2023-05-14T14:03:27.462Z,22.50
2023-05-14T14:05:55.873Z,22.80
2023-05-14T14:08:24.809Z,23.50
2023-05-14T14:10:55.419Z,24.40
2023-05-14T14:13:25.471Z,24.40
2023-05-14T14:15:54.251Z,24.40
2023-05-14T14:18:22.811Z,23.90
2023-05-14T14:20:51.361Z,23.50
2023-05-14T14:23:20.766Z,22.60
2023-05-14T14:25:49.208Z,22.60
2023-05-14T14:28:17.615Z,22.40
2023-05-14T14:30:47.412Z,22.30
2023-05-14T14:33:16.069Z,21.40
2023-05-14T14:35:44.489Z,21.90
2023-05-14T14:38:13.118Z,22.10
2023-05-14T14:40:41.568Z,21.60
2023-05-14T14:43:10.026Z,21.90
2023-05-14T14:45:38.669Z,21.70
2023-05-14T14:48:27.183Z,21.20
2023-05-14T14:50:56.141Z,20.60
2023-05-14T14:53:25.227Z,20.20
2023-05-14T14:55:53.658Z,21.20
2023-05-14T14:58:22.401Z,21.40
2023-05-14T15:00:53.703Z,21.00
2023-05-14T15:03:22.996Z,21.00
2023-05-14T15:05:53.594Z,21.60
2023-05-14T15:08:28.169Z,21.50
2023-05-14T15:10:57.458Z,21.00
2023-05-14T15:13:27.188Z,20.40
2023-05-14T15:15:55.760Z,20.70
2023-05-14T15:18:24.299Z,20.40
2023-05-14T15:20:54.222Z,20.50
2023-05-14T15:23:22.671Z,20.50
2023-05-14T15:25:51.001Z,20.40
2023-05-14T15:28:19.499Z,20.00
2023-05-14T15:30:49.261Z,20.30
2023-05-14T15:33:19.433Z,20.80
2023-05-14T15:35:48.185Z,21.30
2023-05-14T15:38:18.799Z,21.10
2023-05-14T15:40:47.374Z,21.00
2023-05-14T15:43:16.228Z,20.90
2023-05-14T15:45:46.110Z,20.90
2023-05-14T15:48:14.621Z,21.20
2023-05-14T15:50:44.039Z,20.60
2023-05-14T15:53:12.667Z,20.10
2023-05-14T15:55:42.517Z,19.20
2023-05-14T15:58:11.030Z,18.80
2023-05-14T16:00:39.539Z,18.70
2023-05-14T16:03:08.140Z,18.70
2023-05-14T16:05:37.286Z,19.10
2023-05-14T16:08:06.312Z,18.90
2023-05-14T16:10:34.798Z,18.90
2023-05-14T16:13:04.722Z,18.90
2023-05-14T16:15:33.208Z,19.20
2023-05-14T16:18:01.925Z,18.90
2023-05-14T16:20:32.588Z,19.00
2023-05-14T16:23:00.987Z,18.50
2023-05-14T16:25:31.322Z,18.80
2023-05-14T16:27:59.912Z,19.00
2023-05-14T16:30:29.658Z,18.90
2023-05-14T16:32:58.208Z,18.90
2023-05-14T16:35:26.778Z,19.10
2023-05-14T16:37:55.498Z,18.70
2023-05-14T16:40:24.391Z,18.80
2023-05-14T16:42:53.160Z,18.90
2023-05-14T16:45:21.993Z,19.00
2023-05-14T16:47:52.303Z,18.90
2023-05-14T16:50:21.102Z,18.40
2023-05-14T16:52:49.723Z,19.20
2023-05-14T16:55:19.517Z,18.90
2023-05-14T16:57:47.983Z,19.10
2023-05-14T17:00:18.031Z,19.50
2023-05-14T17:02:49.199Z,19.60
2023-05-14T17:05:19.391Z,20.40
2023-05-14T17:07:48.008Z,20.70
2023-05-14T17:10:16.563Z,21.20
2023-05-14T17:12:45.373Z,20.80
2023-05-14T17:15:13.978Z,21.00
2023-05-14T17:17:42.563Z,20.90
2023-05-14T17:20:13.264Z,20.80
2023-05-14T17:22:44.024Z,20.50
2023-05-14T17:25:12.595Z,20.40
2023-05-14T17:27:41.720Z,20.40
2023-05-14T17:30:11.263Z,20.70
2023-05-14T17:32:39.995Z,21.30
2023-05-14T17:35:09.706Z,21.80
2023-05-14T17:37:38.432Z,22.10
2023-05-14T17:40:10.165Z,22.50
2023-05-14T17:42:38.780Z,23.10
2023-05-14T17:45:08.715Z,23.70
2023-05-14T17:47:37.727Z,23.90
2023-05-14T17:50:07.209Z,24.30
2023-05-14T17:52:35.779Z,25.00
2023-05-14T17:55:04.673Z,25.80
2023-05-14T17:57:34.572Z,26.60
2023-05-14T18:00:04.859Z,28.00
2023-05-14T18:02:39.211Z,27.70
2023-05-14T18:05:08.295Z,28.40
2023-05-14T18:07:37.445Z,29.10
2023-05-14T18:10:06.978Z,29.40
2023-05-14T18:12:36.847Z,30.00
2023-05-14T18:15:06.106Z,30.60
2023-05-14T18:17:34.605Z,31.60
2023-05-14T18:20:03.605Z,32.10
2023-05-14T18:22:32.163Z,33.10
2023-05-14T18:25:00.719Z,34.30
2023-05-14T18:27:30.060Z,34.50
2023-05-14T18:30:00.027Z,35.40
2023-05-14T18:32:28.692Z,36.00
2023-05-14T18:34:57.442Z,36.50
2023-05-14T18:37:26.183Z,37.30
2023-05-14T18:39:54.923Z,37.70
2023-05-14T18:42:23.403Z,38.50
2023-05-14T18:44:52.047Z,39.40
2023-05-14T18:47:22.013Z,39.60
2023-05-14T18:49:54.869Z,40.50
2023-05-14T18:52:23.890Z,41.00
2023-05-14T18:54:52.598Z,42.50
2023-05-14T18:57:21.209Z,42.50
2023-05-14T18:59:49.790Z,43.30
2023-05-14T19:02:18.402Z,43.50
2023-05-14T19:04:52.380Z,44.30
2023-05-14T19:07:22.146Z,45.10
2023-05-14T19:09:50.737Z,45.70
2023-05-14T19:12:19.279Z,46.00
2023-05-14T19:14:48.043Z,46.40
2023-05-14T19:17:18.578Z,47.40
2023-05-14T19:19:50.430Z,48.10
2023-05-14T19:22:19.580Z,48.80
2023-05-14T19:27:21.902Z,50.20
2023-05-14T19:29:50.397Z,50.80
2023-05-14T19:32:19.042Z,52.50
2023-05-14T19:34:48.478Z,53.40
2023-05-14T19:37:19.552Z,53.90
2023-05-14T19:39:48.082Z,53.90
2023-05-14T19:42:16.648Z,54.40
2023-05-14T19:44:45.229Z,54.70
2023-05-14T19:47:13.961Z,55.50
2023-05-14T19:49:43.004Z,55.90
2023-05-14T19:52:12.298Z,56.70
2023-05-14T19:54:42.277Z,57.40
2023-05-14T19:57:11.215Z,57.50
2023-05-14T19:59:40.409Z,57.80
2023-05-14T20:02:09.262Z,59.30
2023-05-14T20:04:40.299Z,59.40
2023-05-14T20:07:10.158Z,60.30
2023-05-14T20:09:38.925Z,60.60
2023-05-14T20:12:09.905Z,60.90
2023-05-14T20:14:39.384Z,61.70
2023-05-14T20:17:08.148Z,62.50
2023-05-14T20:19:36.749Z,63.00
2023-05-14T20:22:05.536Z,64.30
2023-05-14T20:24:34.047Z,64.80
2023-05-14T20:27:02.540Z,66.20
2023-05-14T20:29:32.531Z,67.30
2023-05-14T20:32:01.016Z,69.30
2023-05-14T20:34:29.708Z,71.90
2023-05-14T20:36:58.661Z,77.90
2023-05-14T20:39:27.400Z,81.60
2023-05-14T20:41:55.916Z,83.40
2023-05-14T20:44:24.222Z,85.10
2023-05-14T20:46:54.606Z,87.90
2023-05-14T20:49:23.920Z,90.00
2023-05-14T20:51:52.496Z,91.80
2023-05-14T20:54:20.968Z,92.30
2023-05-14T20:56:49.328Z,93.10
2023-05-14T20:59:19.163Z,93.80
2023-05-14T21:01:47.684Z,94.70
2023-05-14T21:04:17.591Z,95.50
2023-05-14T21:06:46.159Z,96.50
2023-05-14T21:09:14.756Z,97.60
2023-05-14T21:11:43.177Z,98.30
2023-05-14T21:14:11.549Z,99.00
2023-05-14T21:16:40.122Z,99.60
2023-05-14T21:19:08.766Z,99.90
2023-05-14T21:21:38.679Z,99.90
2023-05-14T21:24:08.008Z,99.90
2023-05-14T21:26:37.430Z,99.90
2023-05-14T21:29:05.776Z,99.90
2023-05-14T21:31:34.489Z,99.90
2023-05-14T21:34:02.995Z,99.90
2023-05-14T21:36:32.084Z,99.90
2023-05-14T21:39:01.951Z,99.90
2023-05-14T21:41:31.527Z,99.90
2023-05-14T21:44:00.228Z,99.90
2023-05-14T21:46:29.138Z,99.90
2023-05-14T21:48:58.066Z,99.90
2023-05-14T21:51:26.793Z,99.90
2023-05-14T21:53:55.188Z,99.90
2023-05-14T21:56:25.224Z,99.90
2023-05-14T21:58:55.590Z,99.90
2023-05-14T22:01:24.636Z,99.90
2023-05-14T22:03:53.644Z,99.90
2023-05-14T22:06:23.122Z,99.90
2023-05-14T22:08:51.570Z,99.90
2023-05-14T22:11:20.221Z,99.90
2023-05-14T22:13:50.336Z,99.90
2023-05-14T22:16:18.981Z,99.90
2023-05-14T22:18:48.145Z,99.90
2023-05-14T22:21:18.164Z,99.90
2023-05-14T22:23:46.600Z,99.90
2023-05-14T22:26:16.036Z,99.90
2023-05-14T22:28:44.695Z,99.90
2023-05-14T22:31:14.573Z,99.90
2023-05-14T22:33:42.921Z,99.90
2023-05-14T22:36:11.686Z,99.90
2023-05-14T22:38:41.295Z,99.90
2023-05-14T22:41:09.608Z,99.90
2023-05-14T22:43:38.233Z,99.90
2023-05-14T22:46:06.828Z,99.90
2023-05-14T22:48:37.135Z,99.90
2023-05-14T22:51:05.724Z,99.90
2023-05-14T22:53:36.155Z,99.90
2023-05-14T22:56:04.799Z,99.90
2023-05-14T22:58:33.226Z,99.90
2023-05-14T23:01:01.907Z,99.90
2023-05-14T23:03:30.817Z,99.90
2023-05-14T23:06:00.575Z,99.90
2023-05-14T23:08:29.017Z,99.90
2023-05-14T23:10:58.441Z,99.90
2023-05-14T23:13:27.177Z,99.90
2023-05-14T23:15:55.539Z,99.90
2023-05-14T23:18:24.236Z,99.90
2023-05-14T23:20:52.787Z,99.90
2023-05-14T23:23:22.702Z,99.90
2023-05-14T23:25:51.548Z,99.90
2023-05-14T23:28:20.732Z,99.90
2023-05-14T23:30:49.171Z,99.90
2023-05-14T23:33:17.711Z,99.90
2023-05-14T23:35:46.233Z,99.90
2023-05-14T23:38:15.023Z,99.90
2023-05-14T23:40:44.768Z,99.90
2023-05-14T23:43:13.116Z,99.90
2023-05-14T23:45:41.708Z,99.90
2023-05-14T23:48:10.257Z,99.90
2023-05-14T23:50:39.208Z,99.90
2023-05-14T23:53:07.919Z,99.90
2023-05-14T23:55:36.370Z,99.90
2023-05-14T23:58:06.320Z,99.90
